KASW

Warsaw Municipal Airport

Warsaw, Indiana, USA
METAR KASW 251435Z AUTO 21006KT 5SM -RA OVC007 22/21 A2995 RMK AO2
Observed Flight Rules
Sep-25 @ 14:35 UTC (32 minutes ago) Instrument Flight Rules
Wind Visibility Clouds Conditions
210° at 6 knots 5 miles
  • Overcast at 700' AGL
  • Light Rain
Temperatures Readings
Current 22°C / 72°F
Dewpoint 21°C / 70°F
Humidity 94%
Altimeter 29.95" Hg
Pressure 1014 hPa
Elevation 259
METAR KASW 251435Z AUTO 21006KT 5SM -RA OVC007 22/21 A2995 RMK AO2
Observed Flight Rules
Sep-25 @ 14:35 UTC
(32 minutes ago)
IFR
Wind Visibility
210° at 6 knots 5 miles
Clouds
  • Overcast at 700' AGL
Conditions
  • Light Rain
Temperature Dewpoint
22°C / 72°F 21°C / 70°F
Humidity Altimeter Pressure
94% 29.95" Hg 1014 hPa